Date,TemperatureHighF,TemperatureAvgF,TemperatureLowF,DewpointHighF,DewpointAvgF,DewpointLowF,HumidityHigh,HumidityAvg,HumidityLow,PressureMaxIn,PressureMinIn,WindSpeedMaxMPH,WindSpeedAvgMPH,GustSpeedMaxMPH,PrecipitationSumIn
2013-2-1,58.0,48.4,38.6,33.6,26.5,15.2,60,44,20,30.38,30.18,13,1,13,0.00
2013-2-2,59.0,45.2,32.2,43.6,33.5,18.5,88,64,45,30.39,30.12,11,0,11,0.00
2013-2-3,62.4,51.3,43.9,41.8,34.7,31.5,83,55,33,30.12,29.93,11,1,11,0.00
2013-2-4,55.4,46.2,34.4,40.9,35.3,29.0,89,68,38,30.17,30.06,7,0,7,0.00
2013-2-5,68.3,52.3,38.6,52.0,45.6,36.9,100,80,46,30.10,29.96,10,0,10,0.00
2013-2-6,71.1,58.0,47.6,55.1,50.9,46.1,100,79,48,30.18,30.04,7,0,7,0.00
2013-2-7,59.9,54.8,49.4,57.8,54.2,48.1,100,98,89,30.17,29.72,10,0,10,1.46
2013-2-8,65.5,55.4,48.2,57.2,50.2,46.9,100,84,59,30.07,29.72,7,1,7,0.05
2013-2-9,62.0,50.7,41.3,50.3,36.5,25.9,91,62,27,30.35,30.07,8,0,8,0.00
2013-2-10,65.2,53.9,40.8,57.4,47.9,38.7,98,82,60,30.41,30.20,13,1,13,0.00
2013-2-11,64.3,62.5,60.1,63.9,61.4,57.2,100,97,83,30.24,30.06,8,0,8,1.44
2013-2-12,60.1,56.3,50.8,60.1,55.0,49.3,100,96,74,30.13,29.89,8,0,8,2.01
2013-2-13,73.5,59.8,50.5,66.3,54.6,47.4,100,85,47,29.90,29.70,13,1,13,0.23
2013-2-14,53.9,50.1,45.1,49.1,42.3,38.0,92,75,58,30.10,29.85,6,0,6,0.00
2013-2-15,60.5,49.1,39.1,46.3,41.9,37.9,100,79,46,30.13,29.99,9,0,9,0.00
2013-2-16,55.4,43.9,36.3,45.9,39.9,29.3,100,86,62,30.07,29.86,7,1,7,0.04
2013-2-17,48.0,38.1,30.0,30.4,19.2,8.8,80,51,24,30.34,30.07,8,1,8,0.00
2013-2-18,54.1,41.4,28.5,35.5,26.7,20.9,85,60,31,30.45,30.29,11,0,11,0.00
2013-2-19,65.6,51.9,39.6,57.3,48.9,35.5,100,91,56,30.29,30.00,12,1,12,0.21
2013-2-20,56.5,47.7,35.9,50.5,37.0,25.8,100,70,31,30.19,30.06,9,0,9,0.01
2013-2-21,61.3,49.1,37.9,49.4,42.1,36.6,100,79,47,30.21,30.11,11,1,11,0.00
2013-2-22,64.5,55.5,49.4,64.5,52.5,44.9,100,90,73,30.22,30.06,17,1,17,0.52
2013-2-23,61.3,52.4,45.8,61.3,52.4,45.8,100,100,100,30.06,29.80,8,0,8,2.53
2013-2-24,65.6,55.6,48.5,56.6,51.4,45.8,100,88,49,30.01,29.78,5,0,5,0.01
2013-2-25,51.9,48.3,42.5,50.9,47.0,41.5,100,95,84,30.10,29.96,13,1,13,0.27
2013-2-26,71.3,62.8,48.5,67.1,59.6,47.4,100,90,64,29.98,29.60,16,2,16,0.77
2013-2-27,63.2,53.8,48.9,53.4,43.2,37.7,84,68,55,29.92,29.71,7,1,7,0.00
2013-2-28,60.9,53.3,47.3,42.6,36.8,30.3,74,55,34,29.92,29.80,11,1,11,0.00